Terminal Aerodrome Forecast
Issued by NWS

Home | Current Version | Previous Version | Text Only | Print | Product List | Glossary On
Versions: 1 2 3 4 5 6 7 8 9 10 11 12 13 14
000
FTUS44 KMAF 282300
TAFINK
TAF
KINK 282320Z 2900/2924 02005KT P6SM FEW200
     FM291400 02010KT P6SM BKN060
     FM291600 06016G26KT P6SM OVC060=

USA.gov is the U.S. government's official web portal to all federal, state and local government web resources and services.